Time;durP1;ratioP1;P1;durP2;ratioP2;P2;SDS_P1;SDS_P2;PMS_P1;PMS_P2;Temp;Humidity;BMP_temperature;BMP_pressure;BME280_temperature;BME280_humidity;BME280_pressure;Samples;Min_cycle;Max_cycle;Signal;HPM_P1;HPM_P2
2022/05/01 00:01:27;;;;;;;7.93;4.55;;;9.10;99.90;;;;;;4974224;28;20114;-53
2022/05/01 00:03:53;;;;;;;8.05;4.15;;;9.10;99.90;;;;;;4974239;28;20049;-52
2022/05/01 00:06:19;;;;;;;6.28;3.83;;;9.10;99.90;;;;;;4956978;28;20049;-53
2022/05/01 00:08:46;;;;;;;7.18;4.15;;;9.10;99.90;;;;;;4974283;28;20035;-53
2022/05/01 00:11:12;;;;;;;9.73;4.32;;;9.10;99.90;;;;;;4956741;28;20050;-51
2022/05/01 00:13:39;;;;;;;7.78;3.95;;;9.10;99.90;;;;;;4974053;28;20073;-52
2022/05/01 00:16:05;;;;;;;7.00;3.72;;;9.00;99.90;;;;;;4973628;28;20038;-53
2022/05/01 00:18:31;;;;;;;6.10;3.70;;;9.00;99.90;;;;;;4974291;28;20066;-49
2022/05/01 00:20:56;;;;;;;10.52;4.88;;;9.10;99.90;;;;;;4956386;28;20077;-53
2022/05/01 00:23:22;;;;;;;10.07;4.85;;;9.10;99.90;;;;;;4973829;28;20046;-53
2022/05/01 00:25:47;;;;;;;9.32;4.22;;;9.10;99.90;;;;;;4956243;28;20376;-53
2022/05/01 00:28:14;;;;;;;8.35;4.25;;;9.10;99.90;;;;;;4973746;28;20034;-52
2022/05/01 00:30:41;;;;;;;6.53;3.60;;;9.00;99.90;;;;;;4972919;28;20054;-51
2022/05/01 00:38:37;;;;;;;8.65;4.32;;;9.00;99.90;;;;;;4973155;28;20054;-52
2022/05/01 00:41:07;;;;;;;5.90;4.03;;;9.00;99.90;;;;;;4956006;28;20093;-52
2022/05/01 00:43:33;;;;;;;7.07;3.85;;;9.00;99.90;;;;;;4973333;28;20047;-49
2022/05/01 00:45:59;;;;;;;6.88;4.43;;;9.00;99.90;;;;;;4972565;28;20046;-51
2022/05/01 00:48:25;;;;;;;6.75;3.70;;;9.00;99.90;;;;;;4973306;28;20039;-52
2022/05/01 00:50:52;;;;;;;6.38;3.28;;;8.90;99.90;;;;;;4973240;28;20070;-53
2022/05/01 00:53:19;;;;;;;6.32;4.25;;;9.00;99.90;;;;;;4972912;28;20043;-51
2022/05/01 00:55:46;;;;;;;7.50;3.88;;;8.90;99.90;;;;;;4972748;28;20483;-52
2022/05/01 00:58:12;;;;;;;6.85;4.75;;;8.90;99.90;;;;;;4973065;28;20051;-49
2022/05/01 01:00:38;;;;;;;5.95;3.70;;;8.90;99.90;;;;;;4972303;28;20117;-50
2022/05/01 01:03:04;;;;;;;9.50;4.13;;;8.90;99.90;;;;;;4972902;28;20131;-52
2022/05/01 01:05:29;;;;;;;8.48;3.92;;;8.90;99.90;;;;;;4972784;28;20504;-51
2022/05/01 01:08:00;;;;;;;7.53;4.25;;;8.90;99.90;;;;;;4973048;28;20369;-52
2022/05/01 01:10:26;;;;;;;6.57;3.97;;;8.90;99.90;;;;;;4972870;28;20113;-48
2022/05/01 01:12:54;;;;;;;7.65;4.88;;;8.90;99.90;;;;;;4939773;28;20046;-53
2022/05/01 01:15:25;;;;;;;8.18;4.05;;;8.90;99.90;;;;;;4955199;28;20043;-52
2022/05/01 01:17:54;;;;;;;8.48;4.50;;;8.80;99.90;;;;;;4955214;28;20101;-52
2022/05/01 01:20:21;;;;;;;6.90;4.55;;;8.80;99.90;;;;;;4972468;28;20038;-51
2022/05/01 01:22:50;;;;;;;8.23;4.82;;;8.80;99.90;;;;;;4972227;28;20046;-50
2022/05/01 01:25:20;;;;;;;8.50;4.60;;;8.80;99.90;;;;;;4954719;28;20046;-52
2022/05/01 01:27:47;;;;;;;7.72;4.45;;;8.80;99.90;;;;;;4954751;28;20054;-48
2022/05/01 01:32:59;;;;;;;9.23;4.57;;;8.70;99.90;;;;;;4972431;28;20053;-49
2022/05/01 01:35:26;;;;;;;7.93;4.38;;;8.70;99.90;;;;;;4971962;28;20038;-49
2022/05/01 01:37:56;;;;;;;7.15;4.43;;;8.70;99.90;;;;;;4960689;28;20125;-50
2022/05/01 01:40:37;;;;;;;5.90;3.83;;;8.70;99.90;;;;;;4971952;28;20047;-51
2022/05/01 01:43:05;;;;;;;8.30;4.47;;;8.60;99.90;;;;;;4972262;28;20046;-51
2022/05/01 01:45:30;;;;;;;7.30;4.50;;;8.60;99.90;;;;;;4954254;28;20031;-52
2022/05/01 01:48:07;;;;;;;10.82;5.15;;;8.60;99.90;;;;;;4972004;28;20624;-49
2022/05/01 01:50:33;;;;;;;6.13;4.10;;;8.60;99.90;;;;;;4972046;28;20381;-52
2022/05/01 01:52:59;;;;;;;6.47;4.55;;;8.50;99.90;;;;;;4954653;28;20046;-52
2022/05/01 01:55:25;;;;;;;8.93;5.05;;;8.50;99.90;;;;;;4972122;28;20496;-52
2022/05/01 01:57:50;;;;;;;8.35;4.80;;;8.50;99.90;;;;;;4954676;28;20460;-51
2022/05/01 02:00:16;;;;;;;6.53;3.92;;;8.50;99.90;;;;;;4971914;28;20517;-49
2022/05/01 02:02:42;;;;;;;7.80;5.38;;;8.50;99.90;;;;;;4954430;28;20046;-51
2022/05/01 02:05:08;;;;;;;8.63;4.90;;;8.40;99.90;;;;;;4971790;28;20035;-49
2022/05/01 02:07:34;;;;;;;8.85;5.07;;;8.40;99.90;;;;;;4954712;28;20425;-53
2022/05/01 02:10:00;;;;;;;6.75;4.15;;;8.40;99.90;;;;;;4938271;28;20043;-52
2022/05/01 02:12:26;;;;;;;6.38;4.70;;;8.40;99.90;;;;;;4971864;28;20042;-48
2022/05/01 02:14:52;;;;;;;8.00;4.32;;;8.40;99.90;;;;;;4971400;28;20046;-49
2022/05/01 02:17:18;;;;;;;8.13;4.60;;;8.40;99.90;;;;;;4971919;28;20511;-47
2022/05/01 02:19:44;;;;;;;10.20;5.18;;;8.40;99.90;;;;;;4971789;28;20043;-50
2022/05/01 02:22:10;;;;;;;9.48;5.40;;;8.40;99.90;;;;;;4971022;28;20404;-52
2022/05/01 02:24:35;;;;;;;9.50;5.68;;;8.30;99.90;;;;;;4971281;28;20038;-52
2022/05/01 02:27:01;;;;;;;8.73;5.47;;;8.30;99.90;;;;;;4971277;28;20511;-48
2022/05/01 02:29:27;;;;;;;7.88;4.90;;;8.30;99.90;;;;;;4971211;28;20042;-47
2022/05/01 02:31:54;;;;;;;8.38;5.18;;;8.30;99.90;;;;;;4971263;28;20165;-52
2022/05/01 02:34:24;;;;;;;8.05;5.55;;;8.30;99.90;;;;;;4971425;28;20174;-52
2022/05/01 02:36:53;;;;;;;9.00;5.72;;;8.30;99.90;;;;;;4971224;28;20098;-50
2022/05/01 02:39:19;;;;;;;10.32;5.20;;;8.30;99.90;;;;;;4971287;28;20475;-52
2022/05/01 02:41:46;;;;;;;13.13;7.13;;;8.30;99.90;;;;;;4953920;28;20035;-52
2022/05/01 02:44:12;;;;;;;7.65;4.78;;;8.30;99.90;;;;;;4971184;28;20043;-51
2022/05/01 02:46:37;;;;;;;9.48;6.10;;;8.30;99.90;;;;;;4971351;28;20452;-51
2022/05/01 02:49:05;;;;;;;10.93;5.57;;;8.20;99.90;;;;;;4954036;28;20042;-52
2022/05/01 02:51:31;;;;;;;7.57;4.85;;;8.20;99.90;;;;;;4971150;28;20046;-50
2022/05/01 02:53:58;;;;;;;7.50;5.25;;;8.20;99.90;;;;;;4971307;28;20126;-49
2022/05/01 02:56:24;;;;;;;10.50;5.90;;;8.20;99.90;;;;;;4970744;28;20043;-50
2022/05/01 02:58:50;;;;;;;14.63;6.15;;;8.20;99.90;;;;;;4971454;28;20038;-50
2022/05/01 03:01:16;;;;;;;9.27;5.38;;;8.20;99.90;;;;;;4970626;28;20137;-52
2022/05/01 03:03:41;;;;;;;10.98;6.28;;;8.20;99.90;;;;;;4971157;28;20082;-52
2022/05/01 03:06:08;;;;;;;12.55;6.53;;;8.20;99.90;;;;;;4970982;28;20047;-47
2022/05/01 03:08:34;;;;;;;8.20;5.22;;;8.20;99.90;;;;;;4970810;28;20042;-52
2022/05/01 03:11:01;;;;;;;8.10;5.28;;;8.10;99.90;;;;;;4970799;28;20508;-52
2022/05/01 03:13:27;;;;;;;9.40;5.45;;;8.10;99.90;;;;;;4971230;28;20047;-50
2022/05/01 03:15:52;;;;;;;11.30;6.15;;;8.10;99.90;;;;;;4970562;28;20122;-51
2022/05/01 03:23:49;;;;;;;9.85;5.35;;;8.00;99.90;;;;;;4970834;28;20050;-52
2022/05/01 03:26:18;;;;;;;10.07;5.70;;;8.00;99.90;;;;;;4971058;28;20043;-51
2022/05/01 03:28:48;;;;;;;11.15;6.70;;;8.00;99.90;;;;;;4971012;28;20236;-52
2022/05/01 03:31:15;;;;;;;10.80;6.93;;;7.90;99.90;;;;;;4953192;28;20105;-52
2022/05/01 03:33:42;;;;;;;12.50;6.80;;;7.90;99.90;;;;;;4970821;28;20500;-52
2022/05/01 03:36:09;;;;;;;9.27;6.05;;;7.90;99.90;;;;;;4970513;28;20149;-49
2022/05/01 03:38:38;;;;;;;10.27;7.03;;;7.90;99.90;;;;;;4971060;28;20038;-51
2022/05/01 03:41:05;;;;;;;8.88;5.68;;;7.90;99.90;;;;;;4970626;28;20193;-52
2022/05/01 03:43:32;;;;;;;10.25;6.15;;;7.90;99.90;;;;;;4970818;28;20084;-52
2022/05/01 03:45:59;;;;;;;10.00;6.15;;;7.90;99.90;;;;;;4953146;28;20130;-51
2022/05/01 03:48:25;;;;;;;12.55;7.05;;;7.90;99.90;;;;;;4937621;28;20078;-50
2022/05/01 03:50:52;;;;;;;9.20;5.65;;;7.80;99.90;;;;;;4970717;28;20039;-52
2022/05/01 03:53:19;;;;;;;9.35;6.40;;;7.80;99.90;;;;;;4970502;28;20100;-51
2022/05/01 03:55:45;;;;;;;11.73;7.50;;;7.80;99.90;;;;;;4970613;28;20073;-50
2022/05/01 03:58:11;;;;;;;11.18;6.10;;;7.70;99.90;;;;;;4970700;28;20500;-51
2022/05/01 04:00:37;;;;;;;10.68;5.80;;;7.70;99.90;;;;;;4970569;28;20050;-53
2022/05/01 04:03:03;;;;;;;11.05;7.22;;;7.70;99.90;;;;;;4953245;28;20050;-47
2022/05/01 04:05:28;;;;;;;9.00;6.03;;;7.70;99.90;;;;;;4970571;28;20038;-51
2022/05/01 04:07:54;;;;;;;9.93;5.85;;;7.70;99.90;;;;;;4971216;28;20416;-51
2022/05/01 04:10:20;;;;;;;10.93;7.10;;;7.70;99.90;;;;;;4956473;28;20145;-51
2022/05/01 04:12:45;;;;;;;10.70;7.60;;;7.70;99.90;;;;;;4956616;28;20130;-51
2022/05/01 04:15:14;;;;;;;9.45;6.68;;;7.70;99.90;;;;;;4956374;28;20045;-51
2022/05/01 04:17:41;;;;;;;10.20;6.55;;;7.70;99.90;;;;;;4973777;28;20049;-52
2022/05/01 04:20:09;;;;;;;13.30;8.50;;;7.70;99.90;;;;;;4974035;28;20054;-51
2022/05/01 04:22:40;;;;;;;12.93;7.75;;;7.70;99.90;;;;;;4973469;28;20046;-51
2022/05/01 04:25:07;;;;;;;10.52;5.95;;;7.70;99.90;;;;;;4973852;28;20038;-51
2022/05/01 04:27:33;;;;;;;11.02;6.65;;;7.70;99.90;;;;;;4973442;28;20623;-48
2022/05/01 04:29:58;;;;;;;8.95;6.07;;;7.70;99.90;;;;;;4956288;28;20138;-47
2022/05/01 04:32:24;;;;;;;10.98;6.90;;;7.60;99.90;;;;;;4956404;28;20118;-48
2022/05/01 04:34:50;;;;;;;12.57;8.27;;;7.70;99.90;;;;;;4973693;28;20080;-44
2022/05/01 04:37:15;;;;;;;12.50;7.30;;;7.60;99.90;;;;;;4973622;28;20058;-47
2022/05/01 04:39:41;;;;;;;11.63;7.15;;;7.60;99.90;;;;;;4973549;28;20126;-48
2022/05/01 04:42:07;;;;;;;13.13;7.63;;;7.60;99.90;;;;;;4955942;28;20174;-47
2022/05/01 04:44:33;;;;;;;10.10;7.13;;;7.60;99.90;;;;;;4955969;28;20085;-46
2022/05/01 04:46:59;;;;;;;9.40;6.28;;;7.60;99.90;;;;;;4973601;28;20070;-45
2022/05/01 04:49:24;;;;;;;13.48;6.53;;;7.60;99.90;;;;;;4956350;28;20579;-47
2022/05/01 04:51:50;;;;;;;13.55;8.18;;;7.60;99.90;;;;;;4973409;28;20057;-47
2022/05/01 04:54:16;;;;;;;10.40;6.68;;;7.60;99.90;;;;;;4973170;28;20081;-47
2022/05/01 04:59:25;;;;;;;13.00;7.63;;;7.50;99.90;;;;;;4973178;28;20434;-46
2022/05/01 05:01:51;;;;;;;8.75;6.05;;;7.50;99.90;;;;;;4955658;28;20038;-47
2022/05/01 05:04:17;;;;;;;10.30;7.13;;;7.40;99.90;;;;;;4972962;28;20039;-46
2022/05/01 05:06:42;;;;;;;9.77;6.35;;;7.40;99.90;;;;;;4973242;28;20035;-45
2022/05/01 05:11:52;;;;;;;11.82;7.03;;;7.40;99.90;;;;;;4955706;28;20039;-44
2022/05/01 05:14:17;;;;;;;12.25;6.93;;;7.40;99.90;;;;;;4955614;28;20101;-51
2022/05/01 05:16:43;;;;;;;12.73;7.63;;;7.30;99.90;;;;;;4973062;28;20109;-43
2022/05/01 05:19:09;;;;;;;11.35;7.35;;;7.30;99.90;;;;;;4955259;28;20511;-45
2022/05/01 05:21:34;;;;;;;9.50;6.68;;;7.30;99.90;;;;;;4972952;28;20130;-47
2022/05/01 05:24:00;;;;;;;12.25;7.82;;;7.30;99.90;;;;;;4972411;28;20042;-45
2022/05/01 05:26:26;;;;;;;10.07;7.80;;;7.30;99.90;;;;;;4972982;28;20117;-52
2022/05/01 05:28:52;;;;;;;9.93;6.95;;;7.30;99.90;;;;;;4972624;28;20128;-47
2022/05/01 05:31:18;;;;;;;11.45;7.18;;;7.30;99.90;;;;;;4972123;28;20050;-46
2022/05/01 05:33:44;;;;;;;13.75;7.43;;;7.30;99.90;;;;;;4972890;28;20053;-47
2022/05/01 05:36:09;;;;;;;14.20;8.73;;;7.40;99.90;;;;;;4972473;28;20476;-48
2022/05/01 05:38:37;;;;;;;10.48;7.25;;;7.40;99.90;;;;;;4955210;28;20047;-48
2022/05/01 05:41:05;;;;;;;13.77;7.97;;;7.40;99.90;;;;;;4972314;28;20046;-48
2022/05/01 05:43:31;;;;;;;12.20;8.02;;;7.40;99.90;;;;;;4954835;28;20043;-47
2022/05/01 05:45:56;;;;;;;10.65;7.10;;;7.40;99.90;;;;;;4954707;28;20046;-46
2022/05/01 05:48:22;;;;;;;11.23;7.55;;;7.30;99.90;;;;;;4972346;28;20488;-47
2022/05/01 05:50:48;;;;;;;12.45;7.78;;;7.40;99.90;;;;;;4972608;28;20587;-47
2022/05/01 05:53:13;;;;;;;12.43;7.13;;;7.40;99.90;;;;;;4954894;28;20046;-47
2022/05/01 05:55:39;;;;;;;12.63;8.18;;;7.40;99.90;;;;;;4972055;28;20512;-49
2022/05/01 05:58:05;;;;;;;13.77;8.35;;;7.40;99.90;;;;;;4954812;28;20496;-51
2022/05/01 06:00:31;;;;;;;12.48;7.97;;;7.50;99.90;;;;;;4971886;28;20361;-51
2022/05/01 06:02:56;;;;;;;10.50;7.05;;;7.60;99.90;;;;;;4971821;28;20093;-50
2022/05/01 06:05:22;;;;;;;13.18;8.18;;;7.70;99.90;;;;;;4954588;28;20074;-52
2022/05/01 06:07:48;;;;;;;13.30;7.85;;;7.80;99.90;;;;;;4971946;28;20046;-52
2022/05/01 06:10:14;;;;;;;14.63;8.57;;;8.00;99.90;;;;;;4971941;28;20047;-46
2022/05/01 06:12:43;;;;;;;14.88;8.98;;;8.10;99.90;;;;;;4972007;28;20108;-48
2022/05/01 06:15:10;;;;;;;10.40;7.57;;;8.30;99.90;;;;;;4971583;28;20049;-50
2022/05/01 06:17:35;;;;;;;14.32;8.85;;;8.40;99.90;;;;;;4954748;28;20039;-50
2022/05/01 06:20:01;;;;;;;13.73;8.07;;;8.60;99.90;;;;;;4971872;28;20540;-52
2022/05/01 06:22:27;;;;;;;13.35;8.82;;;8.70;99.90;;;;;;4971736;28;20089;-48
2022/05/01 06:24:52;;;;;;;10.43;7.45;;;8.90;99.90;;;;;;4971614;28;20042;-52
2022/05/01 06:27:18;;;;;;;13.27;7.85;;;9.10;99.90;;;;;;4971984;28;20043;-50
2022/05/01 06:29:44;;;;;;;11.95;7.95;;;9.20;99.90;;;;;;4971283;28;20039;-47
2022/05/01 06:32:11;;;;;;;13.45;8.75;;;9.30;99.90;;;;;;4971008;28;20047;-51
2022/05/01 06:34:37;;;;;;;11.32;7.55;;;9.40;99.90;;;;;;4971569;28;20054;-50
2022/05/01 06:37:04;;;;;;;12.05;7.25;;;9.40;99.90;;;;;;4971316;28;20039;-52
2022/05/01 06:39:29;;;;;;;11.23;7.55;;;9.50;99.90;;;;;;4971287;28;20423;-50
2022/05/01 06:41:55;;;;;;;11.55;8.00;;;9.60;99.90;;;;;;4971210;28;20062;-50
2022/05/01 06:44:21;;;;;;;10.95;7.47;;;9.70;99.90;;;;;;4953858;28;20042;-51
2022/05/01 06:46:46;;;;;;;11.18;8.07;;;9.80;99.90;;;;;;4971411;28;20062;-52
2022/05/01 06:49:12;;;;;;;12.45;8.27;;;9.80;99.90;;;;;;4971479;28;20526;-51
2022/05/01 06:51:38;;;;;;;12.05;8.00;;;9.90;99.90;;;;;;4971062;28;20444;-52
2022/05/01 06:54:07;;;;;;;12.15;8.45;;;10.00;99.90;;;;;;4971163;28;20077;-52
2022/05/01 06:56:34;;;;;;;10.43;7.63;;;10.10;99.90;;;;;;4971222;28;20129;-52
2022/05/01 06:59:00;;;;;;;13.60;7.95;;;10.20;99.90;;;;;;4971454;28;20058;-48
2022/05/01 07:01:26;;;;;;;11.80;7.18;;;10.20;99.90;;;;;;4971021;28;20043;-49
2022/05/01 07:03:51;;;;;;;9.63;6.47;;;10.30;99.90;;;;;;4953725;28;20126;-48
2022/05/01 07:06:17;;;;;;;10.85;7.20;;;10.30;99.90;;;;;;4971038;28;20043;-52
2022/05/01 07:08:43;;;;;;;10.93;6.63;;;10.40;99.90;;;;;;4971286;28;20061;-50
2022/05/01 07:11:09;;;;;;;9.15;6.00;;;10.60;99.90;;;;;;4971374;28;20046;-52
2022/05/01 07:13:36;;;;;;;10.02;6.75;;;10.70;99.90;;;;;;4953888;28;20125;-52
2022/05/01 07:16:02;;;;;;;9.00;6.70;;;11.00;99.90;;;;;;4971044;28;20054;-53
2022/05/01 07:18:27;;;;;;;11.02;6.05;;;11.10;99.90;;;;;;4954104;28;20495;-49
2022/05/01 07:20:53;;;;;;;12.00;8.13;;;11.30;99.90;;;;;;4971051;28;20042;-52
2022/05/01 07:23:21;;;;;;;10.23;6.82;;;11.40;99.90;;;;;;4971490;28;20043;-53
2022/05/01 07:25:48;;;;;;;10.38;7.10;;;11.50;99.90;;;;;;4970933;28;20140;-51
2022/05/01 07:28:14;;;;;;;10.13;5.93;;;11.70;99.90;;;;;;4954178;28;20039;-51
2022/05/01 07:30:40;;;;;;;10.13;6.80;;;11.70;99.90;;;;;;4970511;28;20365;-50
2022/05/01 07:33:05;;;;;;;11.73;6.15;;;11.70;99.90;;;;;;4971109;28;20086;-52
2022/05/01 07:35:31;;;;;;;7.07;4.07;;;11.70;99.90;;;;;;4970704;28;20046;-52
2022/05/01 07:37:57;;;;;;;8.30;5.20;;;11.80;99.50;;;;;;4953595;28;20041;-47
2022/05/01 07:40:24;;;;;;;7.40;4.85;;;11.80;98.90;;;;;;4970696;28;20079;-49
2022/05/01 07:42:52;;;;;;;8.38;4.82;;;11.80;99.00;;;;;;4972961;28;20051;-49
2022/05/01 07:45:19;;;;;;;8.32;6.03;;;11.90;98.90;;;;;;4974262;28;20038;-52
2022/05/01 07:47:45;;;;;;;8.23;5.68;;;11.90;98.50;;;;;;4974368;28;20043;-51
2022/05/01 07:50:11;;;;;;;8.93;6.13;;;11.90;98.20;;;;;;4974450;28;20045;-48
2022/05/01 07:52:37;;;;;;;8.57;5.60;;;11.90;98.40;;;;;;4974401;28;20452;-50
2022/05/01 07:55:04;;;;;;;11.80;6.82;;;12.00;98.10;;;;;;4974077;28;20069;-50
2022/05/01 07:57:30;;;;;;;8.82;6.07;;;12.10;97.60;;;;;;4974556;28;20357;-48
2022/05/01 07:59:56;;;;;;;8.02;4.93;;;12.20;97.30;;;;;;4973925;28;20042;-52
2022/05/01 08:02:22;;;;;;;9.60;4.50;;;12.20;96.80;;;;;;4974317;28;20039;-48
2022/05/01 08:04:48;;;;;;;6.30;4.20;;;12.20;95.30;;;;;;4974013;28;20043;-52
2022/05/01 08:07:15;;;;;;;6.70;4.55;;;12.20;95.20;;;;;;4974430;28;20043;-52
2022/05/01 08:09:41;;;;;;;6.15;4.25;;;12.10;94.90;;;;;;4973910;28;20058;-52
2022/05/01 08:12:06;;;;;;;7.00;4.75;;;12.10;94.90;;;;;;4974393;28;20164;-52
2022/05/01 08:14:32;;;;;;;7.45;4.38;;;12.20;95.00;;;;;;4974129;28;20460;-52
2022/05/01 08:16:58;;;;;;;8.15;5.00;;;12.20;94.70;;;;;;4974258;28;20500;-52
2022/05/01 08:22:08;;;;;;;8.65;4.70;;;12.50;94.40;;;;;;4973913;28;20039;-53
2022/05/01 08:24:34;;;;;;;7.13;3.38;;;12.50;93.40;;;;;;4973825;28;20050;-51
2022/05/01 08:27:07;;;;;;;6.05;3.65;;;12.50;93.00;;;;;;4973794;28;20097;-52
2022/05/01 08:29:39;;;;;;;7.40;3.95;;;12.40;92.40;;;;;;4941345;28;20049;-51
2022/05/01 08:32:06;;;;;;;7.88;4.50;;;12.30;92.20;;;;;;4973912;28;20051;-53
2022/05/01 08:34:32;;;;;;;8.35;4.38;;;12.20;92.90;;;;;;4956248;28;20197;-52
2022/05/01 08:36:57;;;;;;;7.85;4.88;;;12.20;93.80;;;;;;4973723;28;20034;-52
2022/05/01 08:39:23;;;;;;;8.52;4.80;;;12.30;93.70;;;;;;4973793;28;20377;-53
2022/05/01 08:41:49;;;;;;;6.78;4.53;;;12.40;93.90;;;;;;4973517;28;20031;-53
2022/05/01 08:44:16;;;;;;;6.75;4.30;;;12.50;93.70;;;;;;4973232;28;20097;-53
2022/05/01 08:46:56;;;;;;;5.93;3.55;;;12.80;92.80;;;;;;4956078;28;20038;-49
2022/05/01 08:49:22;;;;;;;6.55;4.38;;;13.10;92.20;;;;;;4973362;28;20074;-52
2022/05/01 08:51:50;;;;;;;4.97;3.70;;;13.40;91.30;;;;;;4973403;28;20138;-53
2022/05/01 08:54:17;;;;;;;4.97;3.30;;;13.60;90.40;;;;;;4955164;28;20101;-52
2022/05/01 08:56:44;;;;;;;5.95;3.63;;;13.90;88.60;;;;;;4973281;28;20042;-52
2022/05/01 08:59:12;;;;;;;6.13;3.75;;;14.00;85.60;;;;;;4973440;28;20492;-53
2022/05/01 09:01:40;;;;;;;5.25;3.47;;;14.20;84.10;;;;;;4973113;28;20109;-53
2022/05/01 09:04:06;;;;;;;8.10;3.75;;;14.20;82.70;;;;;;4956061;28;20494;-51
2022/05/01 09:06:36;;;;;;;6.95;4.10;;;14.30;83.20;;;;;;4972999;28;20046;-52
2022/05/01 09:09:09;;;;;;;7.57;3.65;;;14.30;81.40;;;;;;4973299;28;20037;-53
2022/05/01 09:14:24;;;;;;;4.95;3.35;;;14.10;81.30;;;;;;4972961;28;20086;-52
2022/05/01 09:17:09;;;;;;;6.53;4.13;;;14.00;79.80;;;;;;4955726;28;20047;-52
2022/05/01 09:19:35;;;;;;;5.35;3.63;;;13.90;76.40;;;;;;4973095;28;20078;-52
2022/05/01 09:22:01;;;;;;;6.43;4.20;;;13.90;78.80;;;;;;4972914;28;20039;-52
2022/05/01 09:24:28;;;;;;;7.55;4.47;;;13.90;78.40;;;;;;4955536;28;20043;-53
2022/05/01 09:26:55;;;;;;;6.53;4.18;;;14.10;77.10;;;;;;4973213;28;20042;-52
2022/05/01 09:29:22;;;;;;;7.97;4.25;;;14.10;75.70;;;;;;4955498;28;20488;-49
2022/05/01 09:31:50;;;;;;;7.43;4.80;;;14.00;75.40;;;;;;4972338;28;20047;-51
2022/05/01 09:34:21;;;;;;;6.32;4.13;;;13.90;76.60;;;;;;4955128;28;20055;-51
2022/05/01 09:36:47;;;;;;;5.70;3.67;;;13.80;74.90;;;;;;4972327;28;20492;-52
2022/05/01 09:39:18;;;;;;;7.10;4.75;;;13.80;74.90;;;;;;4955053;28;20043;-51
2022/05/01 09:41:44;;;;;;;7.60;4.05;;;13.80;74.90;;;;;;4972362;28;20039;-53
2022/05/01 09:44:14;;;;;;;6.60;4.15;;;13.80;75.40;;;;;;4972537;28;20050;-52
2022/05/01 09:46:40;;;;;;;6.07;4.00;;;13.80;74.80;;;;;;4955034;28;20488;-52
2022/05/01 09:49:12;;;;;;;5.35;3.58;;;13.80;74.70;;;;;;4972832;28;20046;-45
2022/05/01 09:51:41;;;;;;;6.53;3.87;;;13.90;73.80;;;;;;4955012;28;20039;-52
2022/05/01 09:54:07;;;;;;;5.75;4.32;;;14.00;73.70;;;;;;4972311;28;20046;-52
2022/05/01 09:56:53;;;;;;;6.10;4.10;;;14.00;73.50;;;;;;4972365;28;20046;-52
2022/05/01 09:59:21;;;;;;;6.90;4.43;;;14.10;70.40;;;;;;4971919;28;20050;-52
2022/05/01 10:02:05;;;;;;;5.38;3.97;;;14.10;71.90;;;;;;4971902;28;20098;-49
2022/05/01 10:04:36;;;;;;;7.78;4.45;;;14.20;70.70;;;;;;4954727;28;20476;-52
2022/05/01 10:07:03;;;;;;;5.55;3.42;;;14.20;70.60;;;;;;4971416;28;20038;-52
2022/05/01 10:09:31;;;;;;;6.47;4.10;;;14.30;69.90;;;;;;4971983;28;20034;-51
2022/05/01 10:11:59;;;;;;;5.53;3.45;;;14.60;69.20;;;;;;4972173;28;20042;-53
2022/05/01 10:14:26;;;;;;;4.72;3.05;;;14.80;67.50;;;;;;4971737;28;20477;-53
2022/05/01 10:16:54;;;;;;;6.10;3.58;;;15.00;65.10;;;;;;4971984;28;20070;-51
2022/05/01 10:19:23;;;;;;;6.05;3.90;;;15.00;63.60;;;;;;4954415;28;20030;-52
2022/05/01 10:21:51;;;;;;;7.43;4.38;;;15.20;61.80;;;;;;4954518;28;20082;-53
2022/05/01 10:24:18;;;;;;;5.95;3.65;;;15.30;61.50;;;;;;4971653;28;20051;-51
2022/05/01 10:26:57;;;;;;;6.70;4.45;;;15.40;60.70;;;;;;4954659;28;20043;-53
2022/05/01 10:33:04;;;;;;;5.80;3.38;;;15.80;58.50;;;;;;4920942;28;20385;-52
2022/05/01 10:36:05;;;;;;;5.85;3.78;;;15.90;55.10;;;;;;4971570;28;20504;-52
2022/05/01 10:39:18;;;;;;;5.50;3.22;;;15.70;53.70;;;;;;4971779;28;20050;-52
2022/05/01 10:41:45;;;;;;;5.50;2.92;;;15.40;54.60;;;;;;4971624;28;20043;-49
2022/05/01 10:44:33;;;;;;;2.63;1.58;;;15.10;55.30;;;;;;4971576;28;20049;-51
2022/05/01 10:47:13;;;;;;;3.20;1.40;;;14.90;53.30;;;;;;4971499;28;20039;-49
2022/05/01 10:49:43;;;;;;;2.95;1.42;;;14.90;51.80;;;;;;4971686;28;20042;-50
2022/05/01 10:52:22;;;;;;;3.72;2.22;;;14.90;52.50;;;;;;4971741;28;20097;-49
2022/05/01 10:54:51;;;;;;;4.57;2.53;;;15.00;52.90;;;;;;4971204;28;20046;-49
2022/05/01 10:57:17;;;;;;;4.78;2.90;;;15.00;53.50;;;;;;4971369;28;20050;-50
2022/05/01 10:59:48;;;;;;;5.05;3.03;;;14.90;54.30;;;;;;4971212;28;20752;-51
2022/05/01 11:02:39;;;;;;;5.65;3.53;;;14.80;54.40;;;;;;4971391;28;20104;-57
2022/05/01 11:05:07;;;;;;;4.90;3.10;;;14.80;53.60;;;;;;4971498;28;20039;-52
2022/05/01 11:07:39;;;;;;;4.35;2.65;;;14.70;54.30;;;;;;4971358;28;20039;-51
2022/05/01 11:10:07;;;;;;;7.83;3.17;;;14.60;54.90;;;;;;4971053;28;20492;-52
2022/05/01 11:12:34;;;;;;;4.13;2.70;;;14.70;55.80;;;;;;4971435;28;20175;-52
2022/05/01 11:15:04;;;;;;;6.03;2.72;;;14.70;56.00;;;;;;4971282;28;20035;-53
2022/05/01 11:17:36;;;;;;;5.00;2.70;;;14.70;55.00;;;;;;4973170;28;20049;-52
2022/05/01 11:20:14;;;;;;;5.30;2.43;;;14.80;55.30;;;;;;4975237;28;20145;-48
2022/05/01 11:22:40;;;;;;;4.68;2.40;;;14.80;54.80;;;;;;4975083;28;20050;-51
2022/05/01 11:25:10;;;;;;;4.57;2.20;;;14.80;55.10;;;;;;4975011;28;20038;-54
2022/05/01 11:27:48;;;;;;;3.47;2.30;;;14.80;56.00;;;;;;4975016;28;20078;-51
2022/05/01 11:30:26;;;;;;;3.80;2.05;;;14.70;54.10;;;;;;4974670;28;20133;-48
2022/05/01 11:33:11;;;;;;;6.03;2.30;;;14.60;55.20;;;;;;4974913;28;20054;-52
2022/05/01 11:35:56;;;;;;;5.72;2.47;;;14.70;54.70;;;;;;4957386;28;20047;-52
2022/05/01 11:38:42;;;;;;;3.85;2.45;;;14.70;55.00;;;;;;4974875;28;20500;-49
2022/05/01 11:41:10;;;;;;;3.63;2.00;;;14.70;53.90;;;;;;4960722;28;20396;-52
2022/05/01 11:43:36;;;;;;;3.28;1.90;;;14.60;54.90;;;;;;4957375;28;20082;-53
2022/05/01 11:46:04;;;;;;;3.33;1.80;;;14.60;54.70;;;;;;4974618;28;20528;-52
2022/05/01 11:48:30;;;;;;;5.00;2.25;;;14.70;55.30;;;;;;4957304;28;20055;-52
2022/05/01 11:50:58;;;;;;;4.88;2.47;;;14.90;55.30;;;;;;4941208;28;20042;-53
2022/05/01 11:53:32;;;;;;;4.57;2.40;;;15.10;54.50;;;;;;4974583;28;20054;-53
2022/05/01 12:04:26;;;;;;;5.35;2.20;;;15.50;52.40;;;;;;4974061;28;20227;-52
2022/05/01 12:07:12;;;;;;;4.10;2.17;;;15.50;51.20;;;;;;4974350;28;20435;-49
2022/05/01 12:09:40;;;;;;;4.30;2.05;;;15.60;50.80;;;;;;4956432;28;20046;-50
2022/05/01 12:12:11;;;;;;;3.38;2.20;;;15.70;51.60;;;;;;4956813;28;20042;-53
2022/05/01 12:14:38;;;;;;;2.72;1.90;;;15.70;50.60;;;;;;4973880;28;20093;-50
2022/05/01 12:17:14;;;;;;;5.35;2.17;;;15.70;51.20;;;;;;4974215;28;20051;-53
2022/05/01 12:19:44;;;;;;;5.05;2.38;;;15.70;50.50;;;;;;4973928;28;20047;-53
2022/05/01 12:22:18;;;;;;;3.03;1.90;;;15.70;50.30;;;;;;4973415;28;20031;-52
2022/05/01 12:24:44;;;;;;;4.00;1.90;;;15.70;49.50;;;;;;4956063;28;20039;-52
2022/05/01 12:27:12;;;;;;;5.25;2.15;;;16.00;49.40;;;;;;4973712;28;20050;-52
2022/05/01 12:29:42;;;;;;;4.93;2.50;;;16.20;48.30;;;;;;4972117;28;20050;-52
2022/05/01 12:32:14;;;;;;;3.20;1.85;;;16.40;48.00;;;;;;4955967;28;20061;-52
2022/05/01 12:34:55;;;;;;;7.00;2.28;;;16.70;48.10;;;;;;4973610;28;20177;-55
2022/05/01 12:37:24;;;;;;;3.20;1.92;;;17.00;46.30;;;;;;4973447;28;20043;-52
2022/05/01 12:40:09;;;;;;;3.88;2.03;;;17.30;46.70;;;;;;4973405;28;20166;-51
2022/05/01 12:45:38;;;;;;;3.75;1.92;;;17.90;44.70;;;;;;4973213;28;20062;-49
2022/05/01 12:48:06;;;;;;;3.22;1.77;;;18.00;44.10;;;;;;4956123;28;20050;-50
2022/05/01 12:50:35;;;;;;;4.50;2.10;;;17.90;44.40;;;;;;4973537;28;20122;-49
2022/05/01 12:53:19;;;;;;;3.17;1.77;;;18.00;44.50;;;;;;4956310;28;20130;-51
2022/05/01 12:55:45;;;;;;;3.75;2.00;;;18.00;44.30;;;;;;4955980;28;20043;-52
2022/05/01 12:58:11;;;;;;;3.28;1.50;;;18.10;43.60;;;;;;4973571;28;20461;-52
2022/05/01 13:00:42;;;;;;;3.20;1.85;;;18.00;42.80;;;;;;4973097;28;20531;-53
2022/05/01 13:03:25;;;;;;;3.35;1.70;;;17.90;42.90;;;;;;4957858;28;20129;-49
2022/05/01 13:05:59;;;;;;;4.32;1.65;;;17.70;42.70;;;;;;4973105;28;20404;-52
2022/05/01 13:08:25;;;;;;;6.00;2.00;;;17.60;43.10;;;;;;4973244;28;20197;-52
2022/05/01 13:11:10;;;;;;;3.20;1.50;;;17.40;43.40;;;;;;4973012;28;20066;-51
2022/05/01 13:13:55;;;;;;;2.97;1.67;;;17.20;42.40;;;;;;4973291;28;20042;-52
2022/05/01 13:16:32;;;;;;;3.03;2.00;;;17.00;43.70;;;;;;4972708;28;20058;-51
2022/05/01 13:19:10;;;;;;;3.30;1.55;;;16.90;43.80;;;;;;4972892;28;20057;-53
2022/05/01 13:21:42;;;;;;;3.00;1.50;;;16.70;44.30;;;;;;4973131;28;20069;-52
2022/05/01 13:24:14;;;;;;;3.70;1.47;;;16.70;44.70;;;;;;4955542;28;20222;-46
2022/05/01 13:26:40;;;;;;;2.90;1.48;;;16.70;45.00;;;;;;4955837;28;20050;-52
2022/05/01 13:29:09;;;;;;;2.30;1.50;;;16.50;45.30;;;;;;4972470;28;20476;-49
2022/05/01 13:31:37;;;;;;;4.35;1.50;;;16.50;46.00;;;;;;4972266;28;20047;-49
2022/05/01 13:34:03;;;;;;;3.58;1.50;;;16.50;45.60;;;;;;4972708;28;20046;-52